Time;durP1;ratioP1;P1;durP2;ratioP2;P2;SDS_P1;SDS_P2;PMS_P1;PMS_P2;Temp;Humidity;BMP_temperature;BMP_pressure;BME280_temperature;BME280_humidity;BME280_pressure;Samples;Min_cycle;Max_cycle;Signal;HPM_P1;HPM_P2
2023/06/14 00:02:02;;;;;;;3.23;2.50;;;15.80;1.00;;;;;;5095745;28;20481;-66
2023/06/14 00:04:30;;;;;;;5.60;2.50;;;15.70;1.00;;;;;;5095413;28;20457;-66
2023/06/14 00:06:57;;;;;;;4.23;2.50;;;15.60;1.00;;;;;;5095643;28;20457;-66
2023/06/14 00:09:24;;;;;;;4.20;3.07;;;15.60;1.00;;;;;;5095674;28;20793;-66
2023/06/14 00:11:51;;;;;;;3.83;2.40;;;15.50;1.00;;;;;;5095186;28;20485;-67
2023/06/14 00:14:18;;;;;;;3.37;2.80;;;15.50;1.00;;;;;;5094965;28;20457;-67
2023/06/14 00:16:45;;;;;;;3.63;3.10;;;15.40;1.00;;;;;;5095300;28;20453;-65
2023/06/14 00:19:12;;;;;;;4.10;2.90;;;15.40;1.00;;;;;;5095316;28;20544;-65
2023/06/14 00:21:40;;;;;;;3.50;3.20;;;15.30;1.00;;;;;;5094948;28;20453;-65
2023/06/14 00:24:08;;;;;;;3.57;2.90;;;15.30;1.00;;;;;;5095420;28;20480;-65
2023/06/14 00:26:35;;;;;;;3.03;2.83;;;15.30;1.00;;;;;;5094995;28;20453;-65
2023/06/14 00:29:01;;;;;;;5.63;2.73;;;15.30;1.00;;;;;;5095116;28;20554;-65
2023/06/14 00:31:28;;;;;;;4.27;2.87;;;15.30;1.00;;;;;;5094795;28;20562;-65
2023/06/14 00:33:55;;;;;;;3.40;2.80;;;15.20;1.00;;;;;;5095124;28;20713;-65
2023/06/14 00:36:22;;;;;;;4.10;3.00;;;15.20;1.00;;;;;;5095167;28;20857;-66
2023/06/14 00:38:50;;;;;;;3.23;2.90;;;15.20;1.00;;;;;;5095277;28;20843;-65
2023/06/14 00:41:17;;;;;;;4.30;3.17;;;15.20;63.80;;;;;;5094924;28;20800;-65
2023/06/14 00:43:44;;;;;;;3.57;3.27;;;15.20;2.70;;;;;;5094865;28;20481;-65
2023/06/14 00:46:11;;;;;;;3.53;3.23;;;15.10;37.90;;;;;;5094740;28;20457;-65
2023/06/14 00:48:39;;;;;;;5.20;4.00;;;15.10;93.90;;;;;;5094896;28;20805;-65
2023/06/14 00:51:06;;;;;;;4.30;3.90;;;15.10;79.10;;;;;;5095012;28;20471;-65
2023/06/14 00:53:35;;;;;;;5.47;3.60;;;15.10;99.90;;;;;;5094307;28;20459;-66
2023/06/14 00:56:04;;;;;;;4.67;3.90;;;15.00;99.90;;;;;;5094878;28;20468;-65
2023/06/14 00:58:33;;;;;;;7.87;3.43;;;15.00;99.90;;;;;;5094610;28;20492;-65
2023/06/14 01:00:59;;;;;;;7.13;4.23;;;15.00;99.90;;;;;;5094092;28;20459;-65
2023/06/14 01:03:28;;;;;;;4.57;3.53;;;15.00;99.90;;;;;;5094347;28;20473;-66
2023/06/14 01:06:02;;;;;;;4.47;4.10;;;14.90;99.90;;;;;;5094213;28;20457;-65
2023/06/14 01:08:39;;;;;;;4.30;3.73;;;14.90;99.90;;;;;;5094553;28;20833;-65
2023/06/14 01:11:13;;;;;;;4.90;4.13;;;14.90;99.90;;;;;;5094729;28;20536;-66
2023/06/14 01:13:43;;;;;;;3.97;3.67;;;14.90;1.00;;;;;;5094048;28;20422;-64
2023/06/14 01:16:11;;;;;;;5.50;3.87;;;14.90;1.00;;;;;;5094807;28;20532;-66
2023/06/14 01:18:39;;;;;;;17.23;4.30;;;14.90;1.00;;;;;;5094426;28;20449;-65
2023/06/14 01:21:06;;;;;;;6.40;3.30;;;14.90;1.00;;;;;;5094315;28;20547;-65
2023/06/14 01:23:34;;;;;;;5.00;3.90;;;14.90;1.00;;;;;;5094388;28;20481;-66
2023/06/14 01:26:03;;;;;;;5.87;3.87;;;14.90;1.00;;;;;;5094454;28;20620;-66
2023/06/14 01:28:33;;;;;;;4.70;4.00;;;14.90;1.00;;;;;;5094314;28;20560;-66
2023/06/14 01:31:03;;;;;;;5.23;3.43;;;14.90;1.00;;;;;;5094056;28;20453;-66
2023/06/14 01:33:31;;;;;;;5.30;4.40;;;14.90;1.00;;;;;;5094649;28;20835;-66
2023/06/14 01:35:58;;;;;;;5.70;3.90;;;14.90;1.00;;;;;;5094191;28;20476;-65
2023/06/14 01:38:27;;;;;;;4.57;4.10;;;15.00;1.00;;;;;;5093868;28;20453;-65
2023/06/14 01:40:57;;;;;;;4.27;3.30;;;15.00;1.00;;;;;;5094527;28;20936;-65
2023/06/14 01:43:25;;;;;;;4.27;3.87;;;14.90;1.00;;;;;;5094597;28;20457;-66
2023/06/14 01:45:53;;;;;;;5.17;3.83;;;14.90;1.00;;;;;;5094277;28;20818;-65
2023/06/14 01:48:21;;;;;;;4.10;3.70;;;14.90;1.00;;;;;;5094249;28;20450;-66
2023/06/14 01:50:50;;;;;;;4.90;3.97;;;14.90;1.00;;;;;;5094427;28;20469;-65
2023/06/14 01:53:17;;;;;;;6.60;3.73;;;14.90;1.00;;;;;;5094341;28;20453;-66
2023/06/14 01:55:44;;;;;;;4.57;4.10;;;14.90;99.90;;;;;;5097535;28;20748;-65
2023/06/14 01:58:13;;;;;;;5.50;4.60;;;14.80;99.90;;;;;;5098213;28;20548;-65
2023/06/14 02:00:40;;;;;;;4.90;4.27;;;14.80;99.90;;;;;;5097967;28;20548;-65
2023/06/14 02:03:07;;;;;;;5.77;4.33;;;14.70;99.90;;;;;;5098021;28;20485;-65
2023/06/14 02:05:34;;;;;;;5.83;4.03;;;14.70;1.00;;;;;;5097381;28;20936;-66
2023/06/14 02:08:01;;;;;;;4.90;4.40;;;14.60;1.00;;;;;;5097902;28;20464;-66
2023/06/14 02:10:28;;;;;;;5.70;4.03;;;14.60;1.00;;;;;;5097783;28;20457;-66
2023/06/14 02:12:54;;;;;;;5.97;4.37;;;14.60;1.00;;;;;;5097235;28;20477;-66
2023/06/14 02:15:23;;;;;;;5.07;4.53;;;14.50;1.00;;;;;;5097849;28;20552;-66
2023/06/14 02:17:50;;;;;;;4.90;4.40;;;14.50;1.00;;;;;;5097932;28;20548;-65
2023/06/14 02:20:17;;;;;;;4.77;4.30;;;14.50;1.00;;;;;;5097099;28;20499;-66
2023/06/14 02:22:46;;;;;;;4.57;4.17;;;14.50;1.00;;;;;;5097706;28;20583;-66
2023/06/14 02:25:12;;;;;;;5.30;4.80;;;14.50;1.00;;;;;;5097135;28;20461;-66
2023/06/14 02:27:39;;;;;;;5.13;4.50;;;14.50;1.00;;;;;;5097509;28;20459;-65
2023/06/14 02:30:07;;;;;;;4.93;4.43;;;14.40;1.00;;;;;;5097205;28;20453;-66
2023/06/14 02:32:36;;;;;;;6.77;4.77;;;14.40;1.00;;;;;;5097556;28;20830;-66
2023/06/14 02:35:03;;;;;;;4.70;4.23;;;14.40;86.30;;;;;;5097206;28;20453;-66
2023/06/14 02:37:30;;;;;;;6.90;4.70;;;14.30;23.90;;;;;;5097015;28;20457;-66
2023/06/14 02:39:57;;;;;;;6.13;4.27;;;14.30;99.90;;;;;;5097433;28;20457;-66
2023/06/14 02:42:24;;;;;;;5.20;4.63;;;14.30;99.90;;;;;;5096920;28;20452;-66
2023/06/14 02:44:51;;;;;;;5.50;4.70;;;14.20;1.00;;;;;;5096857;28;20567;-66
2023/06/14 02:47:18;;;;;;;5.00;4.60;;;14.20;99.90;;;;;;5097202;28;20489;-66
2023/06/14 02:49:47;;;;;;;5.50;4.97;;;14.20;1.00;;;;;;5097211;28;20463;-65
2023/06/14 02:52:14;;;;;;;4.73;4.10;;;14.10;1.00;;;;;;5097484;28;20468;-66
2023/06/14 02:54:41;;;;;;;6.20;5.00;;;14.10;1.00;;;;;;5097126;28;20460;-66
2023/06/14 02:57:08;;;;;;;4.83;4.37;;;14.10;1.00;;;;;;5097064;28;20511;-66
2023/06/14 02:59:36;;;;;;;5.77;4.80;;;14.10;1.00;;;;;;5096924;28;20453;-66
2023/06/14 03:02:03;;;;;;;9.43;5.23;;;14.10;99.90;;;;;;5096819;28;20790;-66
2023/06/14 03:04:32;;;;;;;6.20;5.13;;;14.00;99.90;;;;;;5096517;28;20476;-66
2023/06/14 03:07:02;;;;;;;6.90;5.57;;;14.00;1.00;;;;;;5095278;28;20453;-67
2023/06/14 03:09:29;;;;;;;5.80;4.53;;;14.00;99.90;;;;;;5096439;28;20453;-65
2023/06/14 03:11:56;;;;;;;5.70;5.10;;;14.00;1.00;;;;;;5096503;28;20511;-65
2023/06/14 03:14:23;;;;;;;6.27;5.30;;;14.00;99.90;;;;;;5096763;28;20448;-65
2023/06/14 03:16:50;;;;;;;5.90;5.40;;;13.90;1.00;;;;;;5096505;28;20460;-65
2023/06/14 03:19:17;;;;;;;7.83;7.00;;;13.90;1.00;;;;;;5096169;28;20454;-65
2023/06/14 03:21:44;;;;;;;5.90;5.03;;;13.90;1.00;;;;;;5096507;28;20467;-65
2023/06/14 03:24:12;;;;;;;6.03;5.20;;;13.90;99.90;;;;;;5096681;28;20481;-65
2023/06/14 03:26:39;;;;;;;6.17;5.00;;;13.90;1.00;;;;;;5096400;28;20801;-66
2023/06/14 03:29:06;;;;;;;6.10;5.50;;;13.90;1.00;;;;;;5096271;28;20457;-66
2023/06/14 03:31:33;;;;;;;6.67;4.73;;;13.90;99.90;;;;;;5095926;28;20453;-66
2023/06/14 03:34:00;;;;;;;5.70;5.20;;;13.90;99.90;;;;;;5096372;28;20906;-66
2023/06/14 03:36:27;;;;;;;6.13;5.63;;;13.90;99.90;;;;;;5096001;28;20464;-66
2023/06/14 03:38:54;;;;;;;10.17;6.93;;;13.90;1.00;;;;;;5096117;28;20540;-66
2023/06/14 03:41:22;;;;;;;6.23;5.27;;;13.90;1.00;;;;;;5095933;28;20827;-66
2023/06/14 03:43:49;;;;;;;7.53;5.43;;;13.90;99.90;;;;;;5095838;28;20473;-66
2023/06/14 03:46:16;;;;;;;6.50;5.13;;;14.00;1.00;;;;;;5095511;28;20453;-66
2023/06/14 03:48:43;;;;;;;6.50;5.90;;;14.00;1.00;;;;;;5095692;28;20560;-66
2023/06/14 03:51:10;;;;;;;9.33;5.67;;;14.00;1.00;;;;;;5095503;28;20489;-66
2023/06/14 03:53:37;;;;;;;5.80;5.30;;;14.00;99.90;;;;;;5095416;28;20464;-65
2023/06/14 03:56:04;;;;;;;6.53;5.93;;;14.00;99.90;;;;;;5095515;28;20460;-66
2023/06/14 03:58:32;;;;;;;7.07;6.37;;;14.00;99.90;;;;;;5095704;28;20519;-66
2023/06/14 04:00:59;;;;;;;7.00;6.30;;;14.00;1.00;;;;;;5095591;28;20457;-66
2023/06/14 04:03:29;;;;;;;9.23;6.20;;;14.00;1.00;;;;;;5095007;28;21024;-66
2023/06/14 04:05:56;;;;;;;7.13;5.80;;;14.00;18.50;;;;;;5095638;28;20488;-65
2023/06/14 04:08:24;;;;;;;7.57;6.87;;;14.00;1.00;;;;;;5095361;28;20458;-66
2023/06/14 04:10:51;;;;;;;12.30;6.00;;;14.10;20.50;;;;;;5095186;28;20545;-66
2023/06/14 04:13:18;;;;;;;6.97;6.27;;;14.10;99.90;;;;;;5095066;28;20572;-66
2023/06/14 04:15:46;;;;;;;8.57;6.07;;;14.20;1.00;;;;;;5095199;28;20602;-66
2023/06/14 04:18:13;;;;;;;5.70;5.10;;;14.20;99.90;;;;;;5094663;28;20464;-66
2023/06/14 04:20:40;;;;;;;6.80;5.37;;;14.20;99.90;;;;;;5094797;28;20551;-66
2023/06/14 04:23:17;;;;;;;7.13;5.93;;;14.20;1.00;;;;;;5095097;28;20464;-66
2023/06/14 04:25:45;;;;;;;7.03;6.00;;;14.30;1.00;;;;;;5094983;28;20451;-66
2023/06/14 04:28:12;;;;;;;8.93;6.37;;;14.30;1.00;;;;;;5095298;28;20470;-66
2023/06/14 04:30:40;;;;;;;7.27;6.57;;;14.30;1.00;;;;;;5094892;28;20463;-66
2023/06/14 04:33:09;;;;;;;6.93;5.90;;;14.40;1.00;;;;;;5095226;28;20454;-66
2023/06/14 04:35:37;;;;;;;6.53;5.90;;;14.40;99.90;;;;;;5095228;28;20827;-66
2023/06/14 04:38:08;;;;;;;7.00;6.30;;;14.40;1.00;;;;;;5094731;28;20456;-66
2023/06/14 04:40:42;;;;;;;7.97;6.20;;;14.40;99.90;;;;;;5095051;28;20824;-65
2023/06/14 04:43:12;;;;;;;8.73;7.83;;;14.50;99.90;;;;;;5094977;28;20463;-66
2023/06/14 04:45:39;;;;;;;7.90;7.07;;;14.50;99.90;;;;;;5094882;28;20542;-66
2023/06/14 04:48:08;;;;;;;8.13;7.30;;;14.50;99.90;;;;;;5094678;28;20847;-66
2023/06/14 04:50:35;;;;;;;8.13;6.93;;;14.60;99.90;;;;;;5094805;28;20535;-66
2023/06/14 04:53:02;;;;;;;8.63;6.67;;;14.70;1.00;;;;;;5094895;28;20744;-66
2023/06/14 04:55:29;;;;;;;7.80;6.23;;;14.70;99.90;;;;;;5094630;28;20488;-66
2023/06/14 04:57:56;;;;;;;8.60;6.70;;;14.80;99.90;;;;;;5094448;28;20453;-66
2023/06/14 05:00:23;;;;;;;7.97;6.63;;;14.90;99.90;;;;;;5094771;28;20631;-66
2023/06/14 05:02:52;;;;;;;8.13;7.27;;;14.90;99.90;;;;;;5094335;28;20933;-66
2023/06/14 05:05:21;;;;;;;7.33;6.63;;;15.00;99.90;;;;;;5094562;28;20949;-67
2023/06/14 05:07:48;;;;;;;6.07;5.53;;;15.10;1.00;;;;;;5094685;28;20495;-65
2023/06/14 05:10:14;;;;;;;8.80;6.20;;;15.20;99.90;;;;;;5095112;28;20544;-67
2023/06/14 05:12:43;;;;;;;6.90;6.20;;;15.30;99.90;;;;;;5094358;28;20976;-67
2023/06/14 05:15:11;;;;;;;7.93;6.50;;;15.30;1.00;;;;;;5094729;28;20779;-66
2023/06/14 05:17:40;;;;;;;8.30;6.83;;;15.40;1.00;;;;;;5094722;28;20461;-66
2023/06/14 05:20:09;;;;;;;7.70;6.90;;;15.40;99.90;;;;;;5094545;28;20500;-65
2023/06/14 05:22:38;;;;;;;7.37;6.67;;;15.50;99.90;;;;;;5094065;28;20457;-66
2023/06/14 05:25:05;;;;;;;7.83;6.47;;;15.60;1.00;;;;;;5093877;28;20477;-66
2023/06/14 05:27:34;;;;;;;7.90;6.70;;;15.60;1.00;;;;;;5094203;28;20457;-66
2023/06/14 05:30:01;;;;;;;7.87;7.07;;;15.70;1.00;;;;;;5096619;28;20456;-66
2023/06/14 05:32:28;;;;;;;7.23;6.47;;;15.80;1.00;;;;;;5098175;28;20942;-66
2023/06/14 05:34:54;;;;;;;7.23;6.60;;;15.90;1.00;;;;;;5098890;28;20540;-66
2023/06/14 05:37:21;;;;;;;8.97;7.20;;;16.00;1.00;;;;;;5098987;28;20783;-66
2023/06/14 05:39:49;;;;;;;7.30;6.60;;;16.10;1.00;;;;;;5098298;28;20453;-66
2023/06/14 05:42:16;;;;;;;8.63;7.20;;;16.20;1.00;;;;;;5098933;28;20453;-66
2023/06/14 05:44:43;;;;;;;7.60;6.90;;;16.30;1.00;;;;;;5098299;28;20480;-66
2023/06/14 05:47:10;;;;;;;8.17;6.70;;;16.30;1.00;;;;;;5098113;28;20457;-66
2023/06/14 05:49:36;;;;;;;7.13;6.07;;;16.40;1.00;;;;;;5098044;28;20519;-66
2023/06/14 05:52:04;;;;;;;8.07;7.20;;;16.40;1.00;;;;;;5097609;28;20449;-67
2023/06/14 05:54:31;;;;;;;9.87;7.33;;;16.50;1.00;;;;;;5098155;28;20525;-66
2023/06/14 05:57:01;;;;;;;12.50;7.40;;;16.50;1.00;;;;;;5097989;28;20463;-66
2023/06/14 05:59:28;;;;;;;7.67;6.87;;;16.60;1.00;;;;;;5097624;28;20467;-66
2023/06/14 06:01:54;;;;;;;6.87;6.13;;;16.70;1.00;;;;;;5097815;28;21023;-66
2023/06/14 06:04:21;;;;;;;7.30;6.60;;;16.70;1.00;;;;;;5097771;28;20487;-66
2023/06/14 06:06:48;;;;;;;8.33;5.97;;;16.80;1.00;;;;;;5098160;28;20463;-66
2023/06/14 06:09:15;;;;;;;7.87;5.63;;;16.90;1.00;;;;;;5097662;28;20463;-65
2023/06/14 06:11:42;;;;;;;7.57;5.93;;;16.90;1.00;;;;;;5097689;28;20488;-66
2023/06/14 06:14:10;;;;;;;6.77;5.93;;;16.90;1.00;;;;;;5097301;28;20496;-66
2023/06/14 06:16:37;;;;;;;10.17;6.37;;;17.00;1.00;;;;;;5097605;28;20465;-66
2023/06/14 06:19:04;;;;;;;6.97;5.90;;;17.00;1.00;;;;;;5097001;28;20893;-66
2023/06/14 06:21:31;;;;;;;8.00;5.80;;;17.00;1.00;;;;;;5097467;28;20463;-66
2023/06/14 06:23:58;;;;;;;8.80;6.47;;;17.00;1.00;;;;;;5097235;28;20587;-66
2023/06/14 06:26:26;;;;;;;18.27;15.00;;;17.00;1.00;;;;;;5097325;28;20790;-66
2023/06/14 06:28:53;;;;;;;82.40;57.97;;;17.00;1.00;;;;;;5097339;28;20453;-66
2023/06/14 06:31:22;;;;;;;6.40;5.90;;;17.00;1.00;;;;;;5096930;28;20461;-66
2023/06/14 06:33:49;;;;;;;9.30;6.37;;;17.00;1.00;;;;;;5096873;28;20458;-66
2023/06/14 06:36:16;;;;;;;7.43;6.43;;;16.90;1.00;;;;;;5096876;28;20464;-66
2023/06/14 06:38:43;;;;;;;7.40;6.10;;;16.90;1.00;;;;;;5097125;28;20556;-66
2023/06/14 06:41:10;;;;;;;18.33;13.90;;;16.90;1.00;;;;;;5096605;28;20524;-66
2023/06/14 06:43:37;;;;;;;9.10;7.20;;;16.90;1.00;;;;;;5097079;28;20540;-66
2023/06/14 06:46:03;;;;;;;7.40;6.40;;;16.90;1.00;;;;;;5097096;28;20829;-66
2023/06/14 06:48:32;;;;;;;7.33;6.60;;;16.90;1.00;;;;;;5097224;28;20468;-66
2023/06/14 06:50:58;;;;;;;8.97;6.50;;;16.90;1.00;;;;;;5096696;28;20460;-66
2023/06/14 06:53:25;;;;;;;7.83;5.70;;;16.90;1.00;;;;;;5096808;28;20878;-67
2023/06/14 06:55:52;;;;;;;10.70;7.07;;;16.90;1.00;;;;;;5096416;28;20540;-65
2023/06/14 06:58:21;;;;;;;6.80;5.90;;;16.90;1.00;;;;;;5096479;28;20453;-66
2023/06/14 07:00:48;;;;;;;8.80;5.03;;;17.00;1.00;;;;;;5096542;28;20468;-65
2023/06/14 07:03:15;;;;;;;7.37;5.37;;;17.10;1.00;;;;;;5096766;28;20530;-66
2023/06/14 07:05:43;;;;;;;11.37;6.10;;;17.20;1.00;;;;;;5096470;28;20886;-65
2023/06/14 07:08:10;;;;;;;8.97;5.80;;;17.20;1.00;;;;;;5096180;28;20796;-65
2023/06/14 07:10:37;;;;;;;6.00;5.40;;;17.30;1.00;;;;;;5096236;28;20544;-66
2023/06/14 07:13:04;;;;;;;7.53;6.00;;;17.40;1.00;;;;;;5096467;28;20836;-65
2023/06/14 07:15:31;;;;;;;8.03;5.27;;;17.40;1.00;;;;;;5096736;28;20461;-66
2023/06/14 07:17:59;;;;;;;12.00;6.20;;;17.50;1.00;;;;;;5096716;28;20453;-66
2023/06/14 07:20:26;;;;;;;7.53;5.93;;;17.50;1.00;;;;;;5096569;28;20796;-66
2023/06/14 07:22:54;;;;;;;7.23;6.27;;;17.60;1.00;;;;;;5096939;28;20471;-66
2023/06/14 07:25:22;;;;;;;10.20;5.83;;;17.60;1.00;;;;;;5096302;28;20586;-67
2023/06/14 07:27:49;;;;;;;6.27;5.60;;;17.70;1.00;;;;;;5096539;28;20464;-66
2023/06/14 07:30:15;;;;;;;8.20;5.20;;;17.80;1.00;;;;;;5096130;28;20463;-66
2023/06/14 07:32:42;;;;;;;8.83;5.07;;;17.80;1.00;;;;;;5096293;28;20463;-66
2023/06/14 07:35:09;;;;;;;7.33;6.17;;;17.90;99.90;;;;;;5096107;28;20464;-66
2023/06/14 07:37:36;;;;;;;8.57;5.47;;;18.00;1.00;;;;;;5096037;28;20539;-66
2023/06/14 07:40:06;;;;;;;7.90;5.37;;;18.10;1.00;;;;;;5095713;28;20465;-67
2023/06/14 07:42:34;;;;;;;7.23;5.63;;;18.10;99.90;;;;;;5095982;28;20944;-66
2023/06/14 07:45:01;;;;;;;9.10;6.60;;;18.30;1.00;;;;;;5095706;28;20564;-66
2023/06/14 07:47:28;;;;;;;6.73;4.87;;;18.40;1.00;;;;;;5095765;28;20540;-66
2023/06/14 07:49:55;;;;;;;6.40;4.90;;;18.50;1.00;;;;;;5096002;28;20463;-67
2023/06/14 07:52:22;;;;;;;7.50;5.20;;;18.50;39.20;;;;;;5095274;28;20472;-67
2023/06/14 07:54:48;;;;;;;7.10;5.53;;;18.60;14.10;;;;;;5095677;28;20540;-65
2023/06/14 07:57:17;;;;;;;8.50;4.67;;;18.70;8.10;;;;;;5095821;28;20449;-67
2023/06/14 07:59:43;;;;;;;10.07;5.40;;;18.80;7.00;;;;;;5095907;28;20464;-66
2023/06/14 08:02:10;;;;;;;9.33;5.33;;;18.90;1.00;;;;;;5095714;28;20950;-66
2023/06/14 08:04:37;;;;;;;7.70;5.50;;;18.90;1.00;;;;;;5095195;28;21050;-66
2023/06/14 08:07:05;;;;;;;8.33;6.00;;;19.00;1.00;;;;;;5095557;28;20797;-66
2023/06/14 08:09:32;;;;;;;5.93;5.10;;;19.10;1.00;;;;;;5095459;28;20544;-67
2023/06/14 08:11:58;;;;;;;5.93;4.43;;;19.20;1.00;;;;;;5095263;28;20492;-66
2023/06/14 08:14:27;;;;;;;8.90;4.83;;;19.20;1.00;;;;;;5095373;28;20568;-66
2023/06/14 08:16:54;;;;;;;6.47;5.33;;;19.20;1.00;;;;;;5095065;28;20833;-66
2023/06/14 08:19:20;;;;;;;5.50;4.90;;;19.20;1.00;;;;;;5094746;28;20455;-66
2023/06/14 08:21:48;;;;;;;6.23;5.23;;;19.20;1.00;;;;;;5095297;28;20548;-66
2023/06/14 08:24:15;;;;;;;29.33;22.60;;;19.30;1.00;;;;;;5095205;28;20485;-67
2023/06/14 08:26:42;;;;;;;8.80;6.40;;;19.30;1.00;;;;;;5095258;28;20522;-66
2023/06/14 08:29:09;;;;;;;4.97;4.47;;;19.30;1.00;;;;;;5095166;28;20485;-65
2023/06/14 08:31:37;;;;;;;8.73;4.80;;;19.30;1.00;;;;;;5095093;28;20472;-66
2023/06/14 08:34:04;;;;;;;6.27;4.73;;;19.40;1.00;;;;;;5094902;28;20544;-66
2023/06/14 08:36:31;;;;;;;7.30;4.90;;;19.50;1.00;;;;;;5094839;28;20449;-65
2023/06/14 08:38:57;;;;;;;6.70;4.90;;;19.50;1.00;;;;;;5094683;28;20544;-66
2023/06/14 08:41:25;;;;;;;7.57;5.27;;;19.50;1.00;;;;;;5094663;28;20457;-66
2023/06/14 08:43:52;;;;;;;5.37;4.20;;;19.50;1.00;;;;;;5094598;28;20496;-66
2023/06/14 08:46:22;;;;;;;4.20;3.90;;;19.60;1.00;;;;;;5094769;28;20495;-67
2023/06/14 08:48:52;;;;;;;6.30;4.93;;;19.60;1.00;;;;;;5094560;28;20474;-67
2023/06/14 08:51:21;;;;;;;6.37;4.10;;;19.70;1.00;;;;;;5094681;28;20457;-66
2023/06/14 08:53:53;;;;;;;5.77;4.83;;;19.80;1.00;;;;;;5094764;28;20503;-66
2023/06/14 08:56:20;;;;;;;7.80;4.60;;;19.90;1.00;;;;;;5094810;28;20438;-66
2023/06/14 08:58:48;;;;;;;4.27;3.50;;;20.00;1.00;;;;;;5094844;28;20936;-66
2023/06/14 09:01:17;;;;;;;6.67;3.43;;;20.20;1.00;;;;;;5094558;28;20463;-66
2023/06/14 09:03:44;;;;;;;5.60;4.00;;;20.30;1.00;;;;;;5094204;28;20690;-66
2023/06/14 09:06:14;;;;;;;4.53;3.10;;;20.40;1.00;;;;;;5094260;28;20592;-66
2023/06/14 09:08:44;;;;;;;6.10;3.30;;;20.50;1.00;;;;;;5094602;28;20530;-66
2023/06/14 09:11:12;;;;;;;5.70;4.20;;;20.60;1.00;;;;;;5094370;28;20453;-66
2023/06/14 09:13:39;;;;;;;4.60;3.60;;;20.70;1.00;;;;;;5093948;28;20548;-66
2023/06/14 09:16:06;;;;;;;5.27;3.77;;;20.80;1.00;;;;;;5094311;28;20459;-66
2023/06/14 09:18:36;;;;;;;5.53;3.87;;;20.90;1.00;;;;;;5094125;28;20467;-66
2023/06/14 09:21:04;;;;;;;8.00;3.83;;;21.10;1.00;;;;;;5093601;28;20459;-67
2023/06/14 09:23:37;;;;;;;4.80;3.53;;;21.20;1.00;;;;;;5093837;28;20530;-66
2023/06/14 09:26:08;;;;;;;4.77;3.30;;;21.30;1.00;;;;;;5093889;28;20468;-66
2023/06/14 09:28:34;;;;;;;8.60;4.17;;;21.30;1.00;;;;;;5094116;28;20453;-65
2023/06/14 09:31:01;;;;;;;10.20;3.83;;;21.40;1.00;;;;;;5094299;28;20475;-67
2023/06/14 09:33:28;;;;;;;4.30;3.90;;;21.40;1.00;;;;;;5094158;28;20794;-65
2023/06/14 09:35:55;;;;;;;4.50;3.90;;;21.40;1.00;;;;;;5094112;28;20450;-66
2023/06/14 09:38:22;;;;;;;5.43;3.40;;;21.40;1.00;;;;;;5093860;28;20453;-66
2023/06/14 09:40:51;;;;;;;4.80;3.57;;;21.40;1.00;;;;;;5094368;28;20552;-66
2023/06/14 09:43:18;;;;;;;6.80;4.23;;;21.40;1.00;;;;;;5093957;28;20922;-67
2023/06/14 09:45:48;;;;;;;7.90;4.30;;;21.50;1.00;;;;;;5094252;28;20491;-67
2023/06/14 09:48:17;;;;;;;10.43;3.43;;;21.50;1.00;;;;;;5094139;28;20480;-66
2023/06/14 09:50:47;;;;;;;10.63;4.30;;;21.60;1.00;;;;;;5094047;28;20544;-66
2023/06/14 09:53:15;;;;;;;22.23;5.40;;;21.70;1.00;;;;;;5094398;28;20485;-65
2023/06/14 09:55:42;;;;;;;8.10;4.57;;;21.80;1.00;;;;;;5094025;28;20453;-66
2023/06/14 09:58:12;;;;;;;8.80;4.57;;;21.80;1.00;;;;;;5093392;28;20464;-66
2023/06/14 10:00:40;;;;;;;23.30;5.17;;;21.90;1.00;;;;;;5093622;28;20564;-66
2023/06/14 10:03:14;;;;;;;29.67;7.30;;;21.90;1.00;;;;;;5094305;28;20547;-66
2023/06/14 10:05:44;;;;;;;11.00;5.20;;;21.90;1.00;;;;;;5094073;28;20544;-66
2023/06/14 10:08:16;;;;;;;11.80;9.13;;;21.90;1.00;;;;;;5093835;28;20574;-67
2023/06/14 10:10:43;;;;;;;5.93;4.17;;;21.80;1.00;;;;;;5093946;28;20766;-66
2023/06/14 10:13:13;;;;;;;4.83;3.53;;;21.70;1.00;;;;;;5093977;28;20481;-66
2023/06/14 10:15:49;;;;;;;5.40;3.70;;;21.70;1.00;;;;;;5097086;28;20540;-67
2023/06/14 10:18:25;;;;;;;5.60;4.00;;;21.60;1.00;;;;;;5098788;28;20763;-67
2023/06/14 10:20:59;;;;;;;7.17;4.00;;;21.60;1.00;;;;;;5097678;28;20626;-67
2023/06/14 10:23:29;;;;;;;4.77;3.90;;;21.60;1.00;;;;;;5097794;28;20549;-67
2023/06/14 10:25:59;;;;;;;4.10;3.70;;;21.60;1.00;;;;;;5097976;28;20761;-67
2023/06/14 10:28:30;;;;;;;6.70;4.10;;;21.60;1.00;;;;;;5098194;28;20452;-67
2023/06/14 10:31:07;;;;;;;4.10;3.70;;;21.60;1.00;;;;;;5098980;28;20465;-67
2023/06/14 10:33:35;;;;;;;5.80;3.90;;;21.70;1.00;;;;;;5099274;28;20521;-67
2023/06/14 10:36:27;;;;;;;7.70;4.30;;;21.70;1.00;;;;;;5098302;28;20484;-67
2023/06/14 10:39:02;;;;;;;6.60;4.50;;;21.80;1.00;;;;;;5098992;28;20513;-66
2023/06/14 10:41:29;;;;;;;11.47;4.90;;;21.90;1.00;;;;;;5098813;28;20444;-66
2023/06/14 10:44:48;;;;;;;5.83;4.10;;;22.00;1.00;;;;;;5098612;28;20791;-66
2023/06/14 10:47:34;;;;;;;8.27;4.33;;;22.20;1.00;;;;;;5098903;28;20535;-66
2023/06/14 10:50:06;;;;;;;7.97;4.47;;;22.30;1.00;;;;;;5099204;28;20500;-65
2023/06/14 10:52:35;;;;;;;7.37;4.23;;;22.40;1.00;;;;;;5098173;28;20434;-66
2023/06/14 10:55:12;;;;;;;6.77;4.33;;;22.40;1.00;;;;;;5098116;28;20961;-66
2023/06/14 10:57:41;;;;;;;4.50;4.10;;;22.50;1.00;;;;;;5097917;28;20441;-66
2023/06/14 11:00:21;;;;;;;5.93;3.63;;;22.60;1.00;;;;;;5097557;28;20465;-66
2023/06/14 11:03:05;;;;;;;10.57;3.90;;;22.80;1.00;;;;;;5097907;28;20544;-66
2023/06/14 11:05:43;;;;;;;7.80;3.60;;;22.90;1.00;;;;;;5097265;28;20472;-66
2023/06/14 11:08:40;;;;;;;8.13;4.40;;;23.00;1.00;;;;;;5098482;28;20449;-66
2023/06/14 11:11:09;;;;;;;4.57;4.07;;;23.10;1.00;;;;;;5098848;28;20437;-66
2023/06/14 11:13:39;;;;;;;8.80;4.43;;;23.20;1.00;;;;;;5097770;28;20781;-66
2023/06/14 11:16:12;;;;;;;4.00;3.60;;;23.20;1.00;;;;;;5096477;28;20528;-66
2023/06/14 11:18:41;;;;;;;6.33;4.73;;;23.30;1.00;;;;;;5096094;28;20445;-66
2023/06/14 11:21:09;;;;;;;8.20;4.00;;;23.40;1.00;;;;;;5096623;28;20454;-66
2023/06/14 11:23:36;;;;;;;9.10;3.93;;;23.60;1.00;;;;;;5096788;28;20464;-66
2023/06/14 11:26:04;;;;;;;7.63;3.70;;;23.80;1.00;;;;;;5096009;28;20481;-66
2023/06/14 11:28:38;;;;;;;6.00;3.60;;;24.10;1.00;;;;;;5095719;28;20651;-66
2023/06/14 11:31:05;;;;;;;6.87;3.33;;;24.40;1.00;;;;;;5096254;28;20463;-66
2023/06/14 11:33:32;;;;;;;4.47;3.57;;;24.80;1.00;;;;;;5096044;28;20552;-66
2023/06/14 11:36:04;;;;;;;6.37;3.93;;;25.20;1.00;;;;;;5096179;28;21004;-66
2023/06/14 11:38:31;;;;;;;6.20;3.83;;;25.60;1.00;;;;;;5096172;28;20442;-66
2023/06/14 11:41:00;;;;;;;4.43;3.40;;;26.10;1.00;;;;;;5096282;28;20458;-66
2023/06/14 11:43:27;;;;;;;4.27;3.40;;;26.40;1.00;;;;;;5096094;28;20537;-66
2023/06/14 11:45:54;;;;;;;12.13;4.00;;;26.70;1.00;;;;;;5095872;28;20996;-67
2023/06/14 11:48:21;;;;;;;7.80;3.80;;;27.10;1.00;;;;;;5095926;28;20457;-66
2023/06/14 11:50:51;;;;;;;6.93;4.33;;;27.20;1.00;;;;;;5095733;28;20936;-66
2023/06/14 11:53:19;;;;;;;4.80;3.50;;;27.20;1.00;;;;;;5095521;28;20465;-66
2023/06/14 11:55:47;;;;;;;16.63;14.40;;;27.30;1.00;;;;;;5095660;28;20460;-66
2023/06/14 11:58:14;;;;;;;12.10;4.70;;;27.80;1.00;;;;;;5095560;28;20453;-67
2023/06/14 12:00:41;;;;;;;8.73;3.40;;;28.40;1.00;;;;;;5095778;28;20776;-66
2023/06/14 12:03:08;;;;;;;12.87;6.07;;;29.00;1.00;;;;;;5096162;28;20522;-66
2023/06/14 12:05:35;;;;;;;5.30;4.43;;;29.30;1.00;;;;;;5095538;28;20556;-66
2023/06/14 12:08:07;;;;;;;7.20;3.07;;;29.30;1.00;;;;;;5095511;28;20457;-67
2023/06/14 12:10:43;;;;;;;4.83;3.83;;;29.30;1.00;;;;;;5095717;28;20438;-67
2023/06/14 12:13:10;;;;;;;9.13;3.43;;;29.40;1.00;;;;;;5094990;28;20504;-65
2023/06/14 12:15:37;;;;;;;5.30;3.70;;;29.50;1.00;;;;;;5095524;28;20457;-66
2023/06/14 12:18:08;;;;;;;6.00;3.33;;;29.50;1.00;;;;;;5095085;28;20457;-65
2023/06/14 12:20:36;;;;;;;5.77;3.60;;;29.20;1.00;;;;;;5095263;28;20511;-65
2023/06/14 12:23:05;;;;;;;6.27;3.90;;;29.10;1.00;;;;;;5094950;28;20465;-66
2023/06/14 12:25:34;;;;;;;7.33;3.17;;;29.20;1.00;;;;;;5094848;28;20453;-65
2023/06/14 12:28:06;;;;;;;10.93;3.27;;;29.40;1.00;;;;;;5095155;28;20457;-67
2023/06/14 12:30:32;;;;;;;11.77;3.50;;;29.90;1.00;;;;;;5095122;28;20437;-66
2023/06/14 12:33:00;;;;;;;3.30;2.90;;;30.50;1.00;;;;;;5095734;28;20464;-66
2023/06/14 12:35:26;;;;;;;6.77;3.50;;;31.30;1.00;;;;;;5095870;28;20457;-66
2023/06/14 12:37:53;;;;;;;3.93;3.20;;;31.80;1.00;;;;;;5095165;28;20789;-66
2023/06/14 12:40:20;;;;;;;8.27;3.47;;;32.10;1.00;;;;;;5094533;28;20557;-67
2023/06/14 12:42:47;;;;;;;7.47;3.33;;;32.30;1.00;;;;;;5094954;28;20453;-67
2023/06/14 12:45:16;;;;;;;7.10;3.47;;;32.50;1.00;;;;;;5094834;28;20484;-66
2023/06/14 12:47:43;;;;;;;5.53;3.63;;;32.80;1.00;;;;;;5095094;28;20489;-66
2023/06/14 12:50:10;;;;;;;4.23;2.87;;;33.00;1.00;;;;;;5094883;28;20786;-66
2023/06/14 12:52:37;;;;;;;5.60;3.10;;;32.90;1.00;;;;;;5094339;28;20449;-66
2023/06/14 12:55:05;;;;;;;4.37;3.43;;;32.10;1.00;;;;;;5094732;28;20456;-66
2023/06/14 12:57:32;;;;;;;4.40;3.27;;;31.40;1.00;;;;;;5094825;28;20776;-64
2023/06/14 13:00:00;;;;;;;5.53;3.90;;;30.70;1.00;;;;;;5094225;28;20919;-66